Time,TemperatureF,DewpointF,PressureIn,WindDirection,WindDirectionDegrees,WindSpeedMPH,WindSpeedGustMPH,Humidity,HourlyPrecipIn,Conditions,Clouds,dailyrainin,SoftwareType,DateUTC
2013-07-16 00:01:00,74.3,73.4,30.13,SW,224,0.0,0.0,97,0.00,,,0.00,meteohub,2013-07-16 04:01:00,
2013-07-16 00:02:00,74.1,73.2,30.13,SW,224,0.0,0.0,97,0.00,,,0.00,meteohub,2013-07-16 04:02:00,
2013-07-16 00:07:00,74.1,73.2,30.13,SW,224,0.0,0.0,97,0.00,,,0.00,meteohub,2013-07-16 04:07:00,
2013-07-16 00:12:00,74.1,73.6,30.13,SW,224,0.0,0.0,98,0.00,,,0.00,meteohub,2013-07-16 04:12:00,
2013-07-16 00:17:00,74.1,73.6,30.13,SW,224,0.0,0.0,98,0.00,,,0.00,meteohub,2013-07-16 04:17:00,
2013-07-16 00:22:00,74.1,73.6,30.13,SW,224,0.0,0.0,98,0.00,,,0.00,meteohub,2013-07-16 04:22:00,
2013-07-16 00:27:00,73.9,73.4,30.13,SW,224,0.0,0.0,98,0.00,,,0.00,meteohub,2013-07-16 04:27:00,
2013-07-16 00:32:00,73.9,73.4,30.13,SW,224,0.0,0.0,98,0.00,,,0.00,meteohub,2013-07-16 04:32:00,
2013-07-16 00:37:00,73.9,73.4,30.12,SW,224,0.0,0.0,98,0.00,,,0.00,meteohub,2013-07-16 04:37:00,
2013-07-16 00:42:00,73.8,73.2,30.12,SW,224,0.0,0.0,98,0.00,,,0.00,meteohub,2013-07-16 04:42:00,
2013-07-16 00:47:00,73.6,73.0,30.12,SW,224,0.0,0.0,98,0.00,,,0.00,meteohub,2013-07-16 04:47:00,
2013-07-16 00:52:00,73.6,73.0,30.12,SW,224,0.0,0.0,98,0.00,,,0.00,meteohub,2013-07-16 04:52:00,
2013-07-16 00:57:00,73.6,73.0,30.12,SW,224,0.0,0.0,98,0.00,,,0.00,meteohub,2013-07-16 04:57:00,
2013-07-16 01:02:00,73.4,72.9,30.12,SW,224,0.0,0.0,98,0.00,,,0.00,meteohub,2013-07-16 05:02:00,
2013-07-16 01:07:00,73.2,72.7,30.12,SW,224,0.0,0.0,98,0.00,,,0.00,meteohub,2013-07-16 05:07:00,
2013-07-16 01:12:00,73.0,72.5,30.12,SW,224,0.0,0.0,98,0.00,,,0.00,meteohub,2013-07-16 05:12:00,
2013-07-16 01:17:00,73.0,72.5,30.12,SW,224,0.0,0.0,98,0.00,,,0.00,meteohub,2013-07-16 05:17:00,
2013-07-16 01:22:00,73.0,72.5,30.12,SW,224,0.0,0.0,98,0.00,,,0.00,meteohub,2013-07-16 05:22:00,
2013-07-16 01:27:00,73.0,72.5,30.12,SW,224,0.0,0.0,98,0.00,,,0.00,meteohub,2013-07-16 05:27:00,
2013-07-16 01:32:00,72.9,72.3,30.12,SW,224,0.0,0.0,98,0.00,,,0.00,meteohub,2013-07-16 05:32:00,
2013-07-16 01:37:00,72.7,72.1,30.12,SW,224,0.0,0.0,98,0.00,,,0.00,meteohub,2013-07-16 05:37:00,
2013-07-16 01:42:00,72.7,72.3,30.12,SW,224,0.0,0.0,99,0.00,,,0.00,meteohub,2013-07-16 05:42:00,
2013-07-16 01:47:00,72.9,72.5,30.12,SW,224,0.0,0.0,99,0.00,,,0.00,meteohub,2013-07-16 05:47:00,
2013-07-16 01:52:00,72.9,72.5,30.12,SW,224,0.0,0.0,99,0.00,,,0.00,meteohub,2013-07-16 05:52:00,
2013-07-16 01:57:00,72.9,72.5,30.12,SW,224,0.0,0.0,99,0.00,,,0.00,meteohub,2013-07-16 05:57:00,
2013-07-16 02:02:00,72.7,72.3,30.12,SW,224,0.0,0.0,99,0.00,,,0.00,meteohub,2013-07-16 06:02:00,
2013-07-16 02:07:00,72.7,72.3,30.12,SW,224,0.0,0.0,99,0.00,,,0.00,meteohub,2013-07-16 06:07:00,
2013-07-16 02:12:00,72.7,72.3,30.12,SW,224,0.0,0.0,99,0.00,,,0.00,meteohub,2013-07-16 06:12:00,
2013-07-16 02:17:00,72.5,72.1,30.12,SW,224,0.0,0.0,99,0.00,,,0.00,meteohub,2013-07-16 06:17:00,
2013-07-16 02:22:00,72.5,72.1,30.12,SW,224,0.0,0.0,99,0.00,,,0.00,meteohub,2013-07-16 06:22:00,
2013-07-16 02:27:00,72.5,72.1,30.12,SW,224,0.0,0.0,99,0.00,,,0.00,meteohub,2013-07-16 06:27:00,
2013-07-16 02:31:00,72.3,72.0,30.12,SW,224,0.0,0.0,99,0.00,,,0.00,meteohub,2013-07-16 06:31:00,
2013-07-16 02:36:00,72.5,72.1,30.12,SW,224,0.0,0.0,99,0.00,,,0.00,meteohub,2013-07-16 06:36:00,
2013-07-16 02:41:00,72.3,72.0,30.12,SW,224,0.0,0.0,99,0.00,,,0.00,meteohub,2013-07-16 06:41:00,
2013-07-16 02:46:00,72.3,72.0,30.12,SW,224,0.0,0.0,99,0.00,,,0.00,meteohub,2013-07-16 06:46:00,
2013-07-16 02:51:00,72.1,71.8,30.12,SW,224,0.0,0.0,99,0.00,,,0.00,meteohub,2013-07-16 06:51:00,
2013-07-16 02:56:00,72.3,72.0,30.12,NNE,25,0.0,1.0,99,0.00,,,0.00,meteohub,2013-07-16 06:56:00,
2013-07-16 03:02:00,72.9,72.5,30.12,NNW,330,0.0,2.0,99,0.00,,,0.00,meteohub,2013-07-16 07:02:00,
2013-07-16 03:07:00,73.6,73.0,30.12,NNW,330,0.0,2.0,98,0.00,,,0.00,meteohub,2013-07-16 07:07:00,
2013-07-16 03:12:00,74.1,72.7,30.12,NNW,340,2.0,3.0,95,0.00,,,0.00,meteohub,2013-07-16 07:12:00,
2013-07-16 03:17:00,75.0,72.1,30.12,NNW,333,3.0,4.0,91,0.00,,,0.00,meteohub,2013-07-16 07:17:00,
2013-07-16 03:22:00,75.7,72.0,30.12,NNW,335,4.0,5.0,88,0.00,,,0.00,meteohub,2013-07-16 07:22:00,
2013-07-16 03:27:00,76.1,71.6,30.12,NNW,333,3.0,6.0,86,0.00,,,0.00,meteohub,2013-07-16 07:27:00,
2013-07-16 03:32:00,76.3,71.4,30.12,NW,326,2.0,6.0,85,0.00,,,0.00,meteohub,2013-07-16 07:32:00,
2013-07-16 03:37:00,76.5,71.2,30.12,NW,326,2.0,6.0,84,0.00,,,0.00,meteohub,2013-07-16 07:37:00,
2013-07-16 03:42:00,76.5,71.2,30.11,NNW,338,3.0,5.0,84,0.00,,,0.00,meteohub,2013-07-16 07:42:00,
2013-07-16 03:47:00,76.3,71.1,30.11,NNW,328,3.0,5.0,84,0.00,,,0.00,meteohub,2013-07-16 07:47:00,
2013-07-16 03:52:00,76.3,70.7,30.11,North,4,0.0,5.0,83,0.00,,,0.00,meteohub,2013-07-16 07:52:00,
2013-07-16 03:57:00,76.1,70.5,30.11,North,352,1.0,5.0,83,0.00,,,0.00,meteohub,2013-07-16 07:57:00,
2013-07-16 04:02:00,75.9,70.3,30.11,NNW,339,2.0,5.0,83,0.00,,,0.00,meteohub,2013-07-16 08:02:00,
2013-07-16 04:07:00,75.9,70.3,30.11,NW,326,1.0,3.0,83,0.00,,,0.00,meteohub,2013-07-16 08:07:00,
2013-07-16 04:12:00,75.9,70.0,30.11,NW,326,2.0,4.0,82,0.00,,,0.00,meteohub,2013-07-16 08:12:00,
2013-07-16 04:17:00,75.9,70.0,30.12,NNW,333,1.0,4.0,82,0.00,,,0.00,meteohub,2013-07-16 08:17:00,
2013-07-16 04:22:00,75.9,70.0,30.12,NW,321,3.0,4.0,82,0.00,,,0.00,meteohub,2013-07-16 08:22:00,
2013-07-16 04:27:00,75.7,69.8,30.12,NW,324,2.0,4.0,82,0.00,,,0.00,meteohub,2013-07-16 08:27:00,
2013-07-16 04:32:00,75.7,69.8,30.12,North,356,0.0,4.0,82,0.00,,,0.00,meteohub,2013-07-16 08:32:00,
2013-07-16 04:37:00,75.7,69.8,30.12,NW,313,0.0,4.0,82,0.00,,,0.00,meteohub,2013-07-16 08:37:00,
2013-07-16 04:42:00,75.6,69.6,30.12,North,350,1.0,4.0,82,0.00,,,0.00,meteohub,2013-07-16 08:42:00,
2013-07-16 04:47:00,75.6,69.6,30.12,NNW,343,2.0,4.0,82,0.00,,,0.00,meteohub,2013-07-16 08:47:00,
2013-07-16 04:52:00,75.6,69.3,30.12,North,359,2.0,4.0,81,0.00,,,0.00,meteohub,2013-07-16 08:52:00,
2013-07-16 04:57:00,75.6,69.3,30.12,NNW,348,1.0,5.0,81,0.00,,,0.00,meteohub,2013-07-16 08:57:00,
2013-07-16 05:02:00,75.4,69.1,30.12,North,352,3.0,5.0,81,0.00,,,0.00,meteohub,2013-07-16 09:02:00,
2013-07-16 05:07:00,75.4,69.1,30.12,NNW,327,0.0,4.0,81,0.00,,,0.00,meteohub,2013-07-16 09:07:00,
2013-07-16 05:12:00,75.2,68.9,30.12,NNW,335,0.0,4.0,81,0.00,,,0.00,meteohub,2013-07-16 09:12:00,
2013-07-16 05:17:00,75.0,69.1,30.12,NNW,340,0.0,3.0,82,0.00,,,0.00,meteohub,2013-07-16 09:17:00,
2013-07-16 05:22:00,74.8,68.9,30.12,North,356,0.0,3.0,82,0.00,,,0.00,meteohub,2013-07-16 09:22:00,
2013-07-16 05:27:00,74.8,68.9,30.12,NNW,348,1.0,4.0,82,0.00,,,0.00,meteohub,2013-07-16 09:27:00,
2013-07-16 05:32:00,74.7,69.1,30.13,ENE,64,0.0,4.0,83,0.00,,,0.00,meteohub,2013-07-16 09:32:00,
2013-07-16 05:37:00,74.5,68.9,30.12,NNW,337,0.0,4.0,83,0.00,,,0.00,meteohub,2013-07-16 09:37:00,
2013-07-16 05:42:00,74.5,68.9,30.13,NNW,333,0.0,4.0,83,0.00,,,0.00,meteohub,2013-07-16 09:42:00,
2013-07-16 05:47:00,74.7,69.1,30.13,NNW,330,0.0,1.0,83,0.00,,,0.00,meteohub,2013-07-16 09:47:00,
2013-07-16 05:52:00,74.8,68.9,30.13,North,349,0.0,1.0,82,0.00,,,0.00,meteohub,2013-07-16 09:52:00,
2013-07-16 05:57:00,75.0,68.7,30.13,NNW,328,0.0,3.0,81,0.00,,,0.00,meteohub,2013-07-16 09:57:00,
2013-07-16 06:02:00,75.4,69.1,30.13,NW,317,0.0,3.0,81,0.00,,,0.00,meteohub,2013-07-16 10:02:00,
2013-07-16 06:07:00,75.6,68.9,30.13,North,354,0.0,3.0,80,0.00,,,0.00,meteohub,2013-07-16 10:07:00,
2013-07-16 06:12:00,75.7,69.1,30.13,NNW,333,0.0,3.0,80,0.00,,,0.00,meteohub,2013-07-16 10:12:00,
2013-07-16 06:17:00,75.9,68.9,30.13,NW,323,1.0,3.0,79,0.00,,,0.00,meteohub,2013-07-16 10:17:00,
2013-07-16 06:22:00,76.3,69.3,30.13,NW,325,2.0,3.0,79,0.00,,,0.00,meteohub,2013-07-16 10:22:00,
2013-07-16 06:27:00,76.5,69.4,30.13,NW,307,2.0,4.0,79,0.00,,,0.00,meteohub,2013-07-16 10:27:00,
2013-07-16 06:32:00,76.6,69.6,30.14,NNW,330,3.0,5.0,79,0.00,,,0.00,meteohub,2013-07-16 10:32:00,
2013-07-16 06:37:00,76.8,69.4,30.14,NNW,338,0.0,5.0,78,0.00,,,0.00,meteohub,2013-07-16 10:37:00,
2013-07-16 06:42:00,77.0,69.6,30.14,NNW,348,0.0,5.0,78,0.00,,,0.00,meteohub,2013-07-16 10:42:00,
2013-07-16 06:47:00,77.4,70.0,30.14,NE,34,0.0,6.0,78,0.00,,,0.00,meteohub,2013-07-16 10:47:00,
2013-07-16 06:52:00,77.5,69.8,30.14,NW,314,0.0,6.0,77,0.00,,,0.00,meteohub,2013-07-16 10:52:00,
2013-07-16 06:57:00,77.7,70.0,30.14,NNW,336,2.0,5.0,77,0.00,,,0.00,meteohub,2013-07-16 10:57:00,
2013-07-16 07:02:00,78.1,70.3,30.14,North,356,0.0,5.0,77,0.00,,,0.00,meteohub,2013-07-16 11:02:00,
2013-07-16 07:07:00,78.3,70.0,30.14,NNW,342,1.0,5.0,76,0.00,,,0.00,meteohub,2013-07-16 11:07:00,
2013-07-16 07:12:00,78.4,70.7,30.14,North,6,3.0,5.0,77,0.00,,,0.00,meteohub,2013-07-16 11:12:00,
2013-07-16 07:17:00,78.6,70.3,30.14,NNW,342,3.0,6.0,76,0.00,,,0.00,meteohub,2013-07-16 11:17:00,
2013-07-16 07:22:00,79.0,70.7,30.14,North,0,2.0,6.0,76,0.00,,,0.00,meteohub,2013-07-16 11:22:00,
2013-07-16 07:27:00,79.2,70.5,30.15,NNE,18,2.0,7.0,75,0.00,,,0.00,meteohub,2013-07-16 11:27:00,
2013-07-16 07:32:00,79.2,70.9,30.15,North,352,6.0,7.0,76,0.00,,,0.00,meteohub,2013-07-16 11:32:00,
2013-07-16 07:37:00,79.3,70.7,30.14,NNE,15,3.0,9.0,75,0.00,,,0.00,meteohub,2013-07-16 11:37:00,
2013-07-16 07:42:00,79.7,71.1,30.14,NNW,336,2.0,9.0,75,0.00,,,0.00,meteohub,2013-07-16 11:42:00,
2013-07-16 07:47:00,79.9,71.2,30.14,NNW,336,4.0,9.0,75,0.00,,,0.00,meteohub,2013-07-16 11:47:00,
2013-07-16 07:52:00,79.9,71.2,30.14,WNW,300,3.0,7.0,75,0.00,,,0.00,meteohub,2013-07-16 11:52:00,
2013-07-16 07:57:00,80.1,71.1,30.15,NNW,343,5.0,7.0,74,0.00,,,0.00,meteohub,2013-07-16 11:57:00,
2013-07-16 08:02:00,80.1,71.1,30.15,NW,322,3.0,8.0,74,0.00,,,0.00,meteohub,2013-07-16 12:02:00,
2013-07-16 08:07:00,80.4,71.8,30.15,NNE,13,6.0,8.0,75,0.00,,,0.00,meteohub,2013-07-16 12:07:00,
2013-07-16 08:12:00,80.8,72.1,30.15,NNW,333,3.0,10.0,75,0.00,,,0.00,meteohub,2013-07-16 12:12:00,
2013-07-16 08:17:00,81.0,72.0,30.15,NNW,327,3.0,10.0,74,0.00,,,0.00,meteohub,2013-07-16 12:17:00,
2013-07-16 08:22:00,81.3,72.7,30.15,North,354,0.0,10.0,75,0.00,,,0.00,meteohub,2013-07-16 12:22:00,
2013-07-16 08:27:00,81.7,71.8,30.15,North,4,7.0,8.0,72,0.00,,,0.00,meteohub,2013-07-16 12:27:00,
2013-07-16 08:32:00,81.7,71.8,30.15,NNW,337,7.0,11.0,72,0.00,,,0.00,meteohub,2013-07-16 12:32:00,
2013-07-16 08:37:00,81.7,71.8,30.15,WNW,303,6.0,11.0,72,0.00,,,0.00,meteohub,2013-07-16 12:37:00,
2013-07-16 08:42:00,81.7,71.8,30.15,NNW,346,7.0,11.0,72,0.00,,,0.00,meteohub,2013-07-16 12:42:00,
2013-07-16 08:47:00,81.9,71.6,30.15,ENE,75,5.0,13.0,71,0.00,,,0.00,meteohub,2013-07-16 12:47:00,
2013-07-16 08:52:00,82.0,72.1,30.15,NNE,20,0.0,13.0,72,0.00,,,0.00,meteohub,2013-07-16 12:52:00,
2013-07-16 08:57:00,82.6,72.1,30.15,North,5,6.0,13.0,71,0.00,,,0.00,meteohub,2013-07-16 12:57:00,
2013-07-16 09:02:00,82.8,72.3,30.15,North,8,7.0,11.0,71,0.00,,,0.00,meteohub,2013-07-16 13:02:00,
2013-07-16 09:07:00,82.9,72.1,30.15,NNE,23,7.0,11.0,70,0.00,,,0.00,meteohub,2013-07-16 13:07:00,
2013-07-16 09:12:00,82.9,72.1,30.15,NNW,329,7.0,12.0,70,0.00,,,0.00,meteohub,2013-07-16 13:12:00,
2013-07-16 09:17:00,83.1,72.3,30.15,NNW,346,3.0,12.0,70,0.00,,,0.00,meteohub,2013-07-16 13:17:00,
2013-07-16 09:22:00,83.3,72.1,30.15,NNW,336,4.0,12.0,69,0.00,,,0.00,meteohub,2013-07-16 13:22:00,
2013-07-16 09:27:00,83.7,72.0,30.15,NW,315,7.0,11.0,68,0.00,,,0.00,meteohub,2013-07-16 13:27:00,
2013-07-16 09:32:00,83.8,72.1,30.15,North,11,5.0,10.0,68,0.00,,,0.00,meteohub,2013-07-16 13:32:00,
2013-07-16 09:37:00,84.4,72.1,30.15,NNW,341,7.0,10.0,67,0.00,,,0.00,meteohub,2013-07-16 13:37:00,
2013-07-16 09:42:00,84.4,72.1,30.15,NNW,332,6.0,10.0,67,0.00,,,0.00,meteohub,2013-07-16 13:42:00,
2013-07-16 09:47:00,84.6,72.3,30.14,WNW,290,2.0,9.0,67,0.00,,,0.00,meteohub,2013-07-16 13:47:00,
2013-07-16 09:52:00,84.9,72.7,30.14,NW,318,7.0,9.0,67,0.00,,,0.00,meteohub,2013-07-16 13:52:00,
2013-07-16 09:57:00,85.5,73.2,30.14,North,354,0.0,8.0,67,0.00,,,0.00,meteohub,2013-07-16 13:57:00,
2013-07-16 10:02:00,85.6,73.0,30.14,NW,323,7.0,8.0,66,0.00,,,0.00,meteohub,2013-07-16 14:02:00,
2013-07-16 10:07:00,85.6,73.0,30.14,NW,305,0.0,8.0,66,0.00,,,0.00,meteohub,2013-07-16 14:07:00,
2013-07-16 10:12:00,86.7,72.7,30.14,NE,39,3.0,8.0,63,0.00,,,0.00,meteohub,2013-07-16 14:12:00,
2013-07-16 10:17:00,87.3,72.7,30.14,ENE,77,3.0,8.0,62,0.00,,,0.00,meteohub,2013-07-16 14:17:00,
2013-07-16 10:22:00,87.4,71.8,30.14,East,87,2.0,5.0,60,0.00,,,0.00,meteohub,2013-07-16 14:22:00,
2013-07-16 10:27:00,87.1,72.5,30.14,North,8,1.0,6.0,62,0.00,,,0.00,meteohub,2013-07-16 14:27:00,
2013-07-16 10:32:00,87.3,72.7,30.14,NE,42,4.0,6.0,62,0.00,,,0.00,meteohub,2013-07-16 14:32:00,
2013-07-16 10:37:00,87.4,72.9,30.14,NW,325,0.0,7.0,62,0.00,,,0.00,meteohub,2013-07-16 14:37:00,
2013-07-16 10:42:00,88.0,71.4,30.14,East,100,4.0,7.0,58,0.00,,,0.00,meteohub,2013-07-16 14:42:00,
2013-07-16 10:47:00,87.6,71.1,30.14,ENE,68,3.0,8.0,58,0.00,,,0.00,meteohub,2013-07-16 14:47:00,
2013-07-16 10:52:00,88.0,72.3,30.14,NNE,26,4.0,8.0,60,0.00,,,0.00,meteohub,2013-07-16 14:52:00,
2013-07-16 10:57:00,88.2,72.5,30.14,North,357,4.0,8.0,60,0.00,,,0.00,meteohub,2013-07-16 14:57:00,
2013-07-16 11:02:00,87.8,72.1,30.14,NNW,330,0.0,9.0,60,0.00,,,0.00,meteohub,2013-07-16 15:02:00,
2013-07-16 11:07:00,87.6,71.6,30.14,NNW,344,5.0,9.0,59,0.00,,,0.00,meteohub,2013-07-16 15:07:00,
2013-07-16 11:12:00,87.6,71.6,30.14,NNW,335,3.0,11.0,59,0.00,,,0.00,meteohub,2013-07-16 15:12:00,
2013-07-16 11:17:00,88.0,71.4,30.14,WNW,297,0.0,11.0,58,0.00,,,0.00,meteohub,2013-07-16 15:17:00,
2013-07-16 11:22:00,88.3,71.6,30.14,East,84,2.0,7.0,58,0.00,,,0.00,meteohub,2013-07-16 15:22:00,
2013-07-16 11:27:00,88.5,71.8,30.14,NNW,330,4.0,7.0,58,0.00,,,0.00,meteohub,2013-07-16 15:27:00,
2013-07-16 11:32:00,88.3,71.2,30.14,WNW,283,0.0,7.0,57,0.00,,,0.00,meteohub,2013-07-16 15:32:00,
2013-07-16 11:37:00,88.9,71.1,30.14,NE,44,4.0,7.0,56,0.00,,,0.00,meteohub,2013-07-16 15:37:00,
2013-07-16 11:42:00,88.9,72.1,30.14,NE,53,1.0,10.0,58,0.00,,,0.00,meteohub,2013-07-16 15:42:00,
2013-07-16 11:47:00,89.1,71.8,30.14,NNW,346,5.0,10.0,57,0.00,,,0.00,meteohub,2013-07-16 15:47:00,
2013-07-16 11:52:00,88.9,71.6,30.13,WNW,302,4.0,10.0,57,0.00,,,0.00,meteohub,2013-07-16 15:52:00,
2013-07-16 11:57:00,88.9,71.6,30.13,NNW,340,6.0,9.0,57,0.00,,,0.00,meteohub,2013-07-16 15:57:00,
2013-07-16 12:01:00,88.9,71.1,30.13,NE,51,6.0,9.0,56,0.00,,,0.00,meteohub,2013-07-16 16:01:00,
2013-07-16 12:07:00,88.9,70.7,30.13,NNW,346,3.0,9.0,55,0.00,,,0.00,meteohub,2013-07-16 16:07:00,
2013-07-16 12:12:00,89.2,71.4,30.13,North,0,8.0,8.0,56,0.00,,,0.00,meteohub,2013-07-16 16:12:00,
2013-07-16 12:17:00,89.1,70.7,30.13,NNE,19,4.0,9.0,55,0.00,,,0.00,meteohub,2013-07-16 16:17:00,
2013-07-16 12:22:00,89.1,70.7,30.13,West,269,1.0,10.0,55,0.00,,,0.00,meteohub,2013-07-16 16:22:00,
2013-07-16 12:27:00,90.3,72.0,30.13,ENE,66,4.0,10.0,55,0.00,,,0.00,meteohub,2013-07-16 16:27:00,
2013-07-16 12:32:00,90.1,71.8,30.13,North,352,3.0,10.0,55,0.00,,,0.00,meteohub,2013-07-16 16:32:00,
2013-07-16 12:37:00,90.0,71.1,30.13,SE,143,0.0,10.0,54,0.00,,,0.00,meteohub,2013-07-16 16:37:00,
2013-07-16 12:42:00,90.1,71.2,30.13,NNW,343,6.0,10.0,54,0.00,,,0.00,meteohub,2013-07-16 16:42:00,
2013-07-16 12:47:00,90.0,70.5,30.13,NE,37,7.0,11.0,53,0.00,,,0.00,meteohub,2013-07-16 16:47:00,
2013-07-16 12:52:00,90.3,69.8,30.13,WNW,298,5.0,14.0,51,0.00,,,0.00,meteohub,2013-07-16 16:52:00,
2013-07-16 12:57:00,90.3,70.9,30.13,NNW,327,10.0,14.0,53,0.00,,,0.00,meteohub,2013-07-16 16:57:00,
2013-07-16 13:02:00,90.3,69.1,30.13,North,354,11.0,14.0,50,0.00,,,0.00,meteohub,2013-07-16 17:02:00,
2013-07-16 13:07:00,90.1,70.2,30.13,North,4,7.0,12.0,52,0.00,,,0.00,meteohub,2013-07-16 17:07:00,
2013-07-16 13:12:00,90.1,69.6,30.12,NW,319,5.0,12.0,51,0.00,,,0.00,meteohub,2013-07-16 17:12:00,
2013-07-16 13:17:00,90.5,68.7,30.12,NNW,342,5.0,12.0,49,0.00,,,0.00,meteohub,2013-07-16 17:17:00,
2013-07-16 13:22:00,90.5,68.7,30.12,NNW,330,7.0,12.0,49,0.00,,,0.00,meteohub,2013-07-16 17:22:00,
2013-07-16 13:27:00,90.5,68.7,30.12,NNW,337,5.0,13.0,49,0.00,,,0.00,meteohub,2013-07-16 17:27:00,
2013-07-16 13:32:00,90.7,68.4,30.12,NNW,341,11.0,13.0,48,0.00,,,0.00,meteohub,2013-07-16 17:32:00,
2013-07-16 13:37:00,90.9,69.6,30.12,NNE,15,3.0,13.0,50,0.00,,,0.00,meteohub,2013-07-16 17:37:00,
2013-07-16 13:42:00,91.2,69.4,30.12,NW,322,6.0,12.0,49,0.00,,,0.00,meteohub,2013-07-16 17:42:00,
2013-07-16 13:47:00,91.0,69.8,30.12,SSE,150,3.0,12.0,50,0.00,,,0.00,meteohub,2013-07-16 17:47:00,
2013-07-16 13:52:00,90.5,73.8,30.12,South,176,4.0,10.0,58,0.00,,,0.00,meteohub,2013-07-16 17:52:00,
2013-07-16 13:57:00,89.1,71.8,30.12,SW,235,6.0,10.0,57,0.00,,,0.00,meteohub,2013-07-16 17:57:00,
2013-07-16 14:02:00,88.3,72.7,30.12,SW,220,2.0,10.0,60,0.00,,,0.00,meteohub,2013-07-16 18:02:00,
2013-07-16 14:07:00,88.3,72.1,30.12,SW,232,7.0,10.0,59,0.00,,,0.00,meteohub,2013-07-16 18:07:00,
2013-07-16 14:12:00,88.5,72.9,30.12,ESE,105,6.0,10.0,60,0.00,,,0.00,meteohub,2013-07-16 18:12:00,
2013-07-16 14:17:00,88.9,72.7,30.12,SSW,197,3.0,9.0,59,0.00,,,0.00,meteohub,2013-07-16 18:17:00,
2013-07-16 14:22:00,88.2,72.5,30.12,South,191,9.0,10.0,60,0.00,,,0.00,meteohub,2013-07-16 18:22:00,
2013-07-16 14:27:00,87.3,72.7,30.12,SSW,203,12.0,13.0,62,0.00,,,0.00,meteohub,2013-07-16 18:27:00,
2013-07-16 14:32:00,86.5,73.4,30.12,SSW,205,6.0,13.0,65,0.00,,,0.00,meteohub,2013-07-16 18:32:00,
2013-07-16 14:37:00,86.4,72.7,30.12,SW,217,10.0,13.0,64,0.00,,,0.00,meteohub,2013-07-16 18:37:00,
2013-07-16 14:42:00,86.2,73.0,30.12,SSE,160,8.0,13.0,65,0.00,,,0.00,meteohub,2013-07-16 18:42:00,
2013-07-16 14:47:00,85.6,72.5,30.12,South,191,8.0,13.0,65,0.00,,,0.00,meteohub,2013-07-16 18:47:00,
2013-07-16 14:52:00,85.1,72.9,30.12,SSW,203,9.0,13.0,67,0.00,,,0.00,meteohub,2013-07-16 18:52:00,
2013-07-16 14:57:00,85.3,73.0,30.12,South,173,7.0,12.0,67,0.00,,,0.00,meteohub,2013-07-16 18:57:00,
2013-07-16 15:02:00,85.5,72.9,30.12,SSW,210,6.0,12.0,66,0.00,,,0.00,meteohub,2013-07-16 19:02:00,
2013-07-16 15:07:00,84.9,73.2,30.12,South,181,6.0,12.0,68,0.00,,,0.00,meteohub,2013-07-16 19:07:00,
2013-07-16 15:12:00,84.6,73.2,30.12,SSW,201,6.0,12.0,69,0.00,,,0.00,meteohub,2013-07-16 19:12:00,
2013-07-16 15:17:00,84.6,73.2,30.12,South,191,8.0,12.0,69,0.00,,,0.00,meteohub,2013-07-16 19:17:00,
2013-07-16 15:22:00,84.6,73.8,30.11,SSW,198,7.0,11.0,70,0.00,,,0.00,meteohub,2013-07-16 19:22:00,
2013-07-16 15:27:00,84.7,73.9,30.11,South,181,4.0,9.0,70,0.00,,,0.00,meteohub,2013-07-16 19:27:00,
2013-07-16 15:32:00,84.7,73.4,30.11,SSW,193,7.0,9.0,69,0.00,,,0.00,meteohub,2013-07-16 19:32:00,
2013-07-16 15:37:00,84.7,73.4,30.12,SSW,201,7.0,9.0,69,0.00,,,0.00,meteohub,2013-07-16 19:37:00,
2013-07-16 15:42:00,84.9,74.1,30.12,SE,136,6.0,9.0,70,0.00,,,0.00,meteohub,2013-07-16 19:42:00,
2013-07-16 15:47:00,84.9,74.1,30.12,South,186,4.0,9.0,70,0.00,,,0.00,meteohub,2013-07-16 19:47:00,
2013-07-16 15:52:00,84.7,74.3,30.11,SSW,193,7.0,8.0,71,0.00,,,0.00,meteohub,2013-07-16 19:52:00,
2013-07-16 15:57:00,84.7,74.7,30.11,South,188,5.0,8.0,72,0.00,,,0.00,meteohub,2013-07-16 19:57:00,
2013-07-16 16:02:00,84.9,74.5,30.11,SSE,162,6.0,8.0,71,0.00,,,0.00,meteohub,2013-07-16 20:02:00,
2013-07-16 16:07:00,85.1,74.7,30.11,SSE,163,4.0,9.0,71,0.00,,,0.00,meteohub,2013-07-16 20:07:00,
2013-07-16 16:12:00,85.3,75.2,30.11,SSE,160,4.0,9.0,72,0.00,,,0.00,meteohub,2013-07-16 20:12:00,
2013-07-16 16:17:00,85.6,75.9,30.11,SSW,197,3.0,9.0,73,0.00,,,0.00,meteohub,2013-07-16 20:17:00,
2013-07-16 16:22:00,85.3,74.8,30.11,South,186,7.0,8.0,71,0.00,,,0.00,meteohub,2013-07-16 20:22:00,
2013-07-16 16:27:00,84.7,75.2,30.12,SSW,201,4.0,8.0,73,0.00,,,0.00,meteohub,2013-07-16 20:27:00,
2013-07-16 16:32:00,85.3,75.6,30.11,South,179,6.0,8.0,73,0.00,,,0.00,meteohub,2013-07-16 20:32:00,
2013-07-16 16:37:00,85.5,75.4,30.11,South,177,5.0,8.0,72,0.00,,,0.00,meteohub,2013-07-16 20:37:00,
2013-07-16 16:42:00,86.2,75.7,30.11,South,191,5.0,7.0,71,0.00,,,0.00,meteohub,2013-07-16 20:42:00,
2013-07-16 16:47:00,86.0,75.0,30.11,South,177,4.0,7.0,70,0.00,,,0.00,meteohub,2013-07-16 20:47:00,
2013-07-16 16:52:00,86.5,76.5,30.11,SSW,194,5.0,6.0,72,0.00,,,0.00,meteohub,2013-07-16 20:52:00,
2013-07-16 16:57:00,87.1,76.1,30.11,SSE,167,3.0,6.0,70,0.00,,,0.00,meteohub,2013-07-16 20:57:00,
2013-07-16 17:02:00,87.4,76.5,30.11,SSW,204,4.0,5.0,70,0.00,,,0.00,meteohub,2013-07-16 21:02:00,
2013-07-16 17:07:00,87.4,75.9,30.11,South,177,5.0,6.0,69,0.00,,,0.00,meteohub,2013-07-16 21:07:00,
2013-07-16 17:12:00,87.3,75.9,30.11,South,170,5.0,6.0,69,0.00,,,0.00,meteohub,2013-07-16 21:12:00,
2013-07-16 17:17:00,87.3,76.3,30.11,SSW,211,5.0,6.0,70,0.00,,,0.00,meteohub,2013-07-16 21:17:00,
2013-07-16 17:22:00,87.1,75.7,30.11,SSW,194,5.0,6.0,69,0.00,,,0.00,meteohub,2013-07-16 21:22:00,
2013-07-16 17:27:00,86.9,75.9,30.11,South,170,3.0,6.0,70,0.00,,,0.00,meteohub,2013-07-16 21:27:00,
2013-07-16 17:32:00,86.4,75.9,30.11,South,189,3.0,6.0,71,0.00,,,0.00,meteohub,2013-07-16 21:32:00,
2013-07-16 17:37:00,86.7,76.6,30.10,SW,226,3.0,6.0,72,0.00,,,0.00,meteohub,2013-07-16 21:37:00,
2013-07-16 17:42:00,86.5,76.5,30.11,SSE,166,5.0,6.0,72,0.00,,,0.00,meteohub,2013-07-16 21:42:00,
2013-07-16 17:47:00,85.6,75.2,30.10,SW,221,6.0,6.0,71,0.00,,,0.00,meteohub,2013-07-16 21:47:00,
2013-07-16 17:52:00,84.9,75.2,30.11,SSE,167,4.0,7.0,73,0.00,,,0.00,meteohub,2013-07-16 21:52:00,
2013-07-16 17:57:00,84.7,75.6,30.11,SE,145,2.0,7.0,74,0.00,,,0.00,meteohub,2013-07-16 21:57:00,
2013-07-16 18:02:00,84.7,75.6,30.11,South,170,3.0,7.0,74,0.00,,,0.00,meteohub,2013-07-16 22:02:00,
2013-07-16 18:07:00,84.4,75.2,30.11,South,173,3.0,5.0,74,0.00,,,0.00,meteohub,2013-07-16 22:07:00,
2013-07-16 18:12:00,84.0,74.8,30.11,SSE,167,5.0,5.0,74,0.00,,,0.00,meteohub,2013-07-16 22:12:00,
2013-07-16 18:17:00,84.0,75.2,30.11,SSE,165,6.0,6.0,75,0.00,,,0.00,meteohub,2013-07-16 22:17:00,
2013-07-16 18:22:00,84.6,75.7,30.11,South,186,3.0,6.0,75,0.00,,,0.00,meteohub,2013-07-16 22:22:00,
2013-07-16 18:27:00,84.6,75.7,30.11,South,183,4.0,6.0,75,0.00,,,0.00,meteohub,2013-07-16 22:27:00,
2013-07-16 18:32:00,84.4,75.2,30.11,SSE,165,3.0,6.0,74,0.00,,,0.00,meteohub,2013-07-16 22:32:00,
2013-07-16 18:37:00,84.4,75.2,30.12,SE,138,2.0,6.0,74,0.00,,,0.00,meteohub,2013-07-16 22:37:00,
2013-07-16 18:42:00,84.6,75.0,30.12,SSW,198,2.0,6.0,73,0.00,,,0.00,meteohub,2013-07-16 22:42:00,
2013-07-16 18:47:00,84.6,75.4,30.11,SSW,198,2.0,6.0,74,0.00,,,0.00,meteohub,2013-07-16 22:47:00,
2013-07-16 18:52:00,84.6,75.0,30.12,South,179,4.0,5.0,73,0.00,,,0.00,meteohub,2013-07-16 22:52:00,
2013-07-16 18:57:00,84.4,75.2,30.12,SSW,213,4.0,5.0,74,0.00,,,0.00,meteohub,2013-07-16 22:57:00,
2013-07-16 19:02:00,83.7,74.8,30.12,SSW,205,4.0,5.0,75,0.00,,,0.00,meteohub,2013-07-16 23:02:00,
2013-07-16 19:07:00,83.1,75.2,30.12,SW,215,4.0,5.0,77,0.00,,,0.00,meteohub,2013-07-16 23:07:00,
2013-07-16 19:12:00,82.8,73.9,30.12,SSW,195,4.0,5.0,75,0.00,,,0.00,meteohub,2013-07-16 23:12:00,
2013-07-16 19:17:00,82.8,74.8,30.12,SW,225,1.0,7.0,77,0.00,,,0.00,meteohub,2013-07-16 23:17:00,
2013-07-16 19:22:00,82.8,74.5,30.12,SSW,207,5.0,7.0,76,0.00,,,0.00,meteohub,2013-07-16 23:22:00,
2013-07-16 19:27:00,82.6,75.0,30.12,SE,138,3.0,6.0,78,0.00,,,0.00,meteohub,2013-07-16 23:27:00,
2013-07-16 19:32:00,82.2,74.3,30.13,South,179,4.0,7.0,77,0.00,,,0.00,meteohub,2013-07-16 23:32:00,
2013-07-16 19:37:00,81.9,74.3,30.13,SSE,164,4.0,7.0,78,0.00,,,0.00,meteohub,2013-07-16 23:37:00,
2013-07-16 19:42:00,81.3,73.8,30.13,SSW,193,4.0,6.0,78,0.00,,,0.00,meteohub,2013-07-16 23:42:00,
2013-07-16 19:47:00,81.1,73.6,30.13,SW,224,2.0,5.0,78,0.00,,,0.00,meteohub,2013-07-16 23:47:00,
2013-07-16 19:52:00,80.8,73.9,30.13,SW,228,2.0,6.0,80,0.00,,,0.00,meteohub,2013-07-16 23:52:00,
2013-07-16 19:57:00,80.4,74.1,30.13,SSW,210,3.0,6.0,81,0.00,,,0.00,meteohub,2013-07-16 23:57:00,
2013-07-16 20:02:00,80.1,73.8,30.13,SSW,201,3.0,6.0,81,0.00,,,0.00,meteohub,2013-07-17 00:02:00,
2013-07-16 20:07:00,79.9,73.9,30.13,SW,221,2.0,5.0,82,0.00,,,0.00,meteohub,2013-07-17 00:07:00,
2013-07-16 20:12:00,79.7,73.8,30.13,SW,228,1.0,5.0,82,0.00,,,0.00,meteohub,2013-07-17 00:12:00,
2013-07-16 20:17:00,79.5,73.6,30.13,SW,228,1.0,4.0,82,0.00,,,0.00,meteohub,2013-07-17 00:17:00,
2013-07-16 20:22:00,79.3,73.4,30.13,SW,235,0.0,4.0,82,0.00,,,0.00,meteohub,2013-07-17 00:22:00,
2013-07-16 20:27:00,79.3,73.8,30.13,SW,233,0.0,4.0,83,0.00,,,0.00,meteohub,2013-07-17 00:27:00,
2013-07-16 20:32:00,79.2,73.6,30.14,SW,228,0.0,2.0,83,0.00,,,0.00,meteohub,2013-07-17 00:32:00,
2013-07-16 20:37:00,79.2,73.9,30.14,SSE,162,0.0,1.0,84,0.00,,,0.00,meteohub,2013-07-17 00:37:00,
2013-07-16 20:42:00,79.0,74.1,30.14,ESE,122,0.0,1.0,85,0.00,,,0.00,meteohub,2013-07-17 00:42:00,
2013-07-16 20:47:00,78.4,73.9,30.14,ESE,110,0.0,1.0,86,0.00,,,0.00,meteohub,2013-07-17 00:47:00,
2013-07-16 20:52:00,78.3,74.1,30.14,ESE,113,0.0,0.0,87,0.00,,,0.00,meteohub,2013-07-17 00:52:00,
2013-07-16 20:57:00,77.9,73.8,30.14,ESE,114,0.0,0.0,87,0.00,,,0.00,meteohub,2013-07-17 00:57:00,
2013-07-16 21:02:00,77.7,73.9,30.15,ESE,118,0.0,0.0,88,0.00,,,0.00,meteohub,2013-07-17 01:02:00,
2013-07-16 21:07:00,77.4,73.6,30.15,ESE,106,0.0,0.0,88,0.00,,,0.00,meteohub,2013-07-17 01:07:00,
2013-07-16 21:12:00,77.2,73.0,30.15,East,100,3.0,0.0,87,0.00,,,0.00,meteohub,2013-07-17 01:12:00,
2013-07-16 21:17:00,77.2,73.4,30.15,SE,129,0.0,5.0,88,0.00,,,0.00,meteohub,2013-07-17 01:17:00,
2013-07-16 21:22:00,77.4,73.2,30.15,SSE,153,0.0,5.0,87,0.00,,,0.00,meteohub,2013-07-17 01:22:00,
2013-07-16 21:27:00,77.2,73.0,30.15,ESE,120,0.0,5.0,87,0.00,,,0.00,meteohub,2013-07-17 01:27:00,
2013-07-16 21:32:00,77.0,73.2,30.16,SE,128,0.0,1.0,88,0.00,,,0.00,meteohub,2013-07-17 01:32:00,
2013-07-16 21:37:00,76.8,73.0,30.16,SE,128,0.0,1.0,88,0.00,,,0.00,meteohub,2013-07-17 01:37:00,
2013-07-16 21:42:00,76.6,73.2,30.16,SE,126,0.0,0.0,89,0.00,,,0.00,meteohub,2013-07-17 01:42:00,
2013-07-16 21:47:00,76.3,72.9,30.16,ESE,110,0.0,0.0,89,0.00,,,0.00,meteohub,2013-07-17 01:47:00,
2013-07-16 21:52:00,75.9,72.9,30.16,SSE,153,0.0,0.0,90,0.00,,,0.00,meteohub,2013-07-17 01:52:00,
2013-07-16 21:57:00,75.9,73.0,30.16,SSE,153,0.0,0.0,91,0.00,,,0.00,meteohub,2013-07-17 01:57:00,
2013-07-16 22:02:00,75.9,73.0,30.16,SSE,153,0.0,0.0,91,0.00,,,0.00,meteohub,2013-07-17 02:02:00,
2013-07-16 22:07:00,75.9,73.0,30.16,ESE,122,0.0,0.0,91,0.00,,,0.00,meteohub,2013-07-17 02:07:00,
2013-07-16 22:12:00,75.7,72.9,30.16,ESE,118,0.0,1.0,91,0.00,,,0.00,meteohub,2013-07-17 02:12:00,
2013-07-16 22:17:00,75.6,73.0,30.16,ESE,118,0.0,1.0,92,0.00,,,0.00,meteohub,2013-07-17 02:17:00,
2013-07-16 22:22:00,75.6,73.0,30.16,ESE,118,0.0,1.0,92,0.00,,,0.00,meteohub,2013-07-17 02:22:00,
2013-07-16 22:27:00,75.7,73.2,30.16,ESE,118,0.0,0.0,92,0.00,,,0.00,meteohub,2013-07-17 02:27:00,
2013-07-16 22:32:00,75.9,73.4,30.16,ESE,119,0.0,0.0,92,0.00,,,0.00,meteohub,2013-07-17 02:32:00,
2013-07-16 22:37:00,75.7,73.2,30.17,ESE,118,0.0,0.0,92,0.00,,,0.00,meteohub,2013-07-17 02:37:00,
2013-07-16 22:42:00,75.7,73.2,30.17,ESE,118,0.0,0.0,92,0.00,,,0.00,meteohub,2013-07-17 02:42:00,
2013-07-16 22:47:00,75.7,73.2,30.17,ESE,121,0.0,0.0,92,0.00,,,0.00,meteohub,2013-07-17 02:47:00,
2013-07-16 22:52:00,75.7,73.6,30.17,ESE,117,0.0,0.0,93,0.00,,,0.00,meteohub,2013-07-17 02:52:00,
2013-07-16 22:57:00,75.6,73.4,30.17,SSW,204,0.0,0.0,93,0.00,,,0.00,meteohub,2013-07-17 02:57:00,
2013-07-16 23:02:00,75.6,73.4,30.17,SSW,204,0.0,0.0,93,0.00,,,0.00,meteohub,2013-07-17 03:02:00,
2013-07-16 23:07:00,75.6,73.4,30.17,East,88,0.0,1.0,93,0.00,,,0.00,meteohub,2013-07-17 03:07:00,
2013-07-16 23:12:00,75.6,73.4,30.17,East,85,0.0,1.0,93,0.00,,,0.00,meteohub,2013-07-17 03:12:00,
2013-07-16 23:17:00,75.4,73.2,30.17,East,84,0.0,1.0,93,0.00,,,0.00,meteohub,2013-07-17 03:17:00,
2013-07-16 23:22:00,75.4,73.2,30.17,East,84,0.0,1.0,93,0.00,,,0.00,meteohub,2013-07-17 03:22:00,
2013-07-16 23:27:00,75.4,73.6,30.17,North,0,0.0,0.0,94,0.00,,,0.00,meteohub,2013-07-17 03:27:00,
2013-07-16 23:32:00,75.4,73.6,30.17,North,0,0.0,1.0,94,0.00,,,0.00,meteohub,2013-07-17 03:32:00,
2013-07-16 23:37:00,74.8,73.0,30.17,ESE,103,0.0,1.0,94,0.00,,,0.00,meteohub,2013-07-17 03:37:00,
2013-07-16 23:42:00,74.8,73.0,30.17,ESE,103,0.0,1.0,94,0.00,,,0.00,meteohub,2013-07-17 03:42:00,
2013-07-16 23:47:00,74.7,73.2,30.17,ESE,103,0.0,1.0,95,0.00,,,0.00,meteohub,2013-07-17 03:47:00,
2013-07-16 23:52:00,74.8,73.2,30.17,ESE,102,0.0,0.0,95,0.00,,,0.00,meteohub,2013-07-17 03:52:00,
2013-07-16 23:57:00,74.7,73.2,30.17,ESE,103,0.0,0.0,95,0.00,,,0.00,meteohub,2013-07-17 03:57:00,